sensor_id;sensor_type;location;lat;lon;timestamp;P1;durP1;ratioP1;P2;durP2;ratioP2
3463;SDS011;3551;41.578;24.706;2023-12-20T00:01:16;29.63;;;16.77;;
3463;SDS011;3551;41.578;24.706;2023-12-20T00:03:43;44.00;;;20.08;;
3463;SDS011;3551;41.578;24.706;2023-12-20T00:06:10;44.78;;;19.42;;
3463;SDS011;3551;41.578;24.706;2023-12-20T00:08:36;36.55;;;18.05;;
3463;SDS011;3551;41.578;24.706;2023-12-20T00:11:03;40.60;;;18.20;;
3463;SDS011;3551;41.578;24.706;2023-12-20T00:13:30;43.90;;;18.70;;
3463;SDS011;3551;41.578;24.706;2023-12-20T00:15:59;44.05;;;20.00;;
3463;SDS011;3551;41.578;24.706;2023-12-20T00:18:25;35.45;;;18.38;;
3463;SDS011;3551;41.578;24.706;2023-12-20T00:20:52;39.80;;;18.25;;
3463;SDS011;3551;41.578;24.706;2023-12-20T00:23:19;43.72;;;19.00;;
3463;SDS011;3551;41.578;24.706;2023-12-20T00:25:48;36.85;;;18.75;;
3463;SDS011;3551;41.578;24.706;2023-12-20T00:28:15;35.55;;;18.15;;
3463;SDS011;3551;41.578;24.706;2023-12-20T00:30:42;35.50;;;17.23;;
3463;SDS011;3551;41.578;24.706;2023-12-20T00:33:10;31.52;;;18.48;;
3463;SDS011;3551;41.578;24.706;2023-12-20T00:35:37;32.30;;;15.52;;
3463;SDS011;3551;41.578;24.706;2023-12-20T00:38:04;29.45;;;15.52;;
3463;SDS011;3551;41.578;24.706;2023-12-20T00:40:32;28.83;;;14.00;;
3463;SDS011;3551;41.578;24.706;2023-12-20T00:42:59;21.95;;;11.63;;
3463;SDS011;3551;41.578;24.706;2023-12-20T00:45:26;21.08;;;9.52;;
3463;SDS011;3551;41.578;24.706;2023-12-20T00:47:53;24.67;;;12.93;;
3463;SDS011;3551;41.578;24.706;2023-12-20T00:50:21;26.73;;;12.70;;
3463;SDS011;3551;41.578;24.706;2023-12-20T00:52:48;25.20;;;12.57;;
3463;SDS011;3551;41.578;24.706;2023-12-20T00:55:15;26.30;;;12.32;;
3463;SDS011;3551;41.578;24.706;2023-12-20T00:57:42;26.85;;;13.05;;
3463;SDS011;3551;41.578;24.706;2023-12-20T01:00:09;25.77;;;13.93;;
3463;SDS011;3551;41.578;24.706;2023-12-20T01:02:38;28.05;;;13.73;;
3463;SDS011;3551;41.578;24.706;2023-12-20T01:05:04;26.70;;;13.53;;
3463;SDS011;3551;41.578;24.706;2023-12-20T01:07:33;26.30;;;11.80;;
3463;SDS011;3551;41.578;24.706;2023-12-20T01:10:00;17.25;;;10.02;;
3463;SDS011;3551;41.578;24.706;2023-12-20T01:12:27;24.35;;;10.93;;
3463;SDS011;3551;41.578;24.706;2023-12-20T01:14:54;22.23;;;11.32;;
3463;SDS011;3551;41.578;24.706;2023-12-20T01:17:21;22.85;;;11.85;;
3463;SDS011;3551;41.578;24.706;2023-12-20T01:19:48;22.08;;;11.02;;
3463;SDS011;3551;41.578;24.706;2023-12-20T01:22:15;25.38;;;11.32;;
3463;SDS011;3551;41.578;24.706;2023-12-20T01:24:43;17.52;;;9.52;;
3463;SDS011;3551;41.578;24.706;2023-12-20T01:27:10;16.63;;;8.85;;
3463;SDS011;3551;41.578;24.706;2023-12-20T01:29:37;19.05;;;8.20;;
3463;SDS011;3551;41.578;24.706;2023-12-20T01:32:04;18.05;;;9.45;;
3463;SDS011;3551;41.578;24.706;2023-12-20T01:34:33;21.75;;;10.27;;
3463;SDS011;3551;41.578;24.706;2023-12-20T01:37:00;19.35;;;8.98;;
3463;SDS011;3551;41.578;24.706;2023-12-20T01:39:26;19.33;;;9.88;;
3463;SDS011;3551;41.578;24.706;2023-12-20T01:41:55;19.55;;;9.20;;
3463;SDS011;3551;41.578;24.706;2023-12-20T01:44:22;26.02;;;7.35;;
3463;SDS011;3551;41.578;24.706;2023-12-20T01:46:48;16.00;;;6.97;;
3463;SDS011;3551;41.578;24.706;2023-12-20T01:49:15;19.00;;;7.30;;
3463;SDS011;3551;41.578;24.706;2023-12-20T01:51:42;14.20;;;7.50;;
3463;SDS011;3551;41.578;24.706;2023-12-20T01:54:10;17.42;;;7.88;;
3463;SDS011;3551;41.578;24.706;2023-12-20T01:56:37;21.10;;;11.27;;
3463;SDS011;3551;41.578;24.706;2023-12-20T01:59:07;26.75;;;10.82;;
3463;SDS011;3551;41.578;24.706;2023-12-20T02:01:35;19.23;;;9.85;;
3463;SDS011;3551;41.578;24.706;2023-12-20T02:04:02;17.40;;;9.70;;
3463;SDS011;3551;41.578;24.706;2023-12-20T02:06:30;18.75;;;9.07;;
3463;SDS011;3551;41.578;24.706;2023-12-20T02:08:57;21.67;;;8.57;;
3463;SDS011;3551;41.578;24.706;2023-12-20T02:11:24;18.10;;;8.95;;
3463;SDS011;3551;41.578;24.706;2023-12-20T02:13:51;22.55;;;10.00;;
3463;SDS011;3551;41.578;24.706;2023-12-20T02:16:20;18.75;;;9.18;;
3463;SDS011;3551;41.578;24.706;2023-12-20T02:18:48;20.90;;;10.73;;
3463;SDS011;3551;41.578;24.706;2023-12-20T02:21:15;22.20;;;9.15;;
3463;SDS011;3551;41.578;24.706;2023-12-20T02:23:43;16.35;;;8.18;;
3463;SDS011;3551;41.578;24.706;2023-12-20T02:26:10;22.30;;;12.52;;
3463;SDS011;3551;41.578;24.706;2023-12-20T02:28:39;14.27;;;8.32;;
3463;SDS011;3551;41.578;24.706;2023-12-20T02:31:06;14.05;;;6.88;;
3463;SDS011;3551;41.578;24.706;2023-12-20T02:33:33;18.55;;;7.72;;
3463;SDS011;3551;41.578;24.706;2023-12-20T02:36:00;15.90;;;7.32;;
3463;SDS011;3551;41.578;24.706;2023-12-20T02:38:26;20.88;;;8.15;;
3463;SDS011;3551;41.578;24.706;2023-12-20T02:40:55;14.45;;;7.15;;
3463;SDS011;3551;41.578;24.706;2023-12-20T02:43:22;15.45;;;7.60;;
3463;SDS011;3551;41.578;24.706;2023-12-20T02:45:49;14.63;;;6.50;;
3463;SDS011;3551;41.578;24.706;2023-12-20T02:48:15;16.13;;;7.32;;
3463;SDS011;3551;41.578;24.706;2023-12-20T02:50:42;13.45;;;7.20;;
3463;SDS011;3551;41.578;24.706;2023-12-20T02:53:09;10.50;;;5.55;;
3463;SDS011;3551;41.578;24.706;2023-12-20T02:55:36;14.43;;;7.15;;
3463;SDS011;3551;41.578;24.706;2023-12-20T02:58:04;13.00;;;6.03;;
3463;SDS011;3551;41.578;24.706;2023-12-20T03:00:31;11.85;;;5.72;;
3463;SDS011;3551;41.578;24.706;2023-12-20T03:02:58;11.98;;;6.63;;
3463;SDS011;3551;41.578;24.706;2023-12-20T03:05:25;13.30;;;6.35;;
3463;SDS011;3551;41.578;24.706;2023-12-20T03:07:52;12.13;;;5.90;;
3463;SDS011;3551;41.578;24.706;2023-12-20T03:10:19;16.50;;;7.20;;
3463;SDS011;3551;41.578;24.706;2023-12-20T03:12:46;15.15;;;7.25;;
3463;SDS011;3551;41.578;24.706;2023-12-20T03:15:14;15.77;;;6.60;;
3463;SDS011;3551;41.578;24.706;2023-12-20T03:17:41;13.55;;;7.03;;
3463;SDS011;3551;41.578;24.706;2023-12-20T03:20:08;22.23;;;6.80;;
3463;SDS011;3551;41.578;24.706;2023-12-20T03:22:34;13.65;;;7.35;;
3463;SDS011;3551;41.578;24.706;2023-12-20T03:25:01;15.85;;;7.82;;
3463;SDS011;3551;41.578;24.706;2023-12-20T03:27:28;16.70;;;7.03;;
3463;SDS011;3551;41.578;24.706;2023-12-20T03:29:55;10.23;;;5.68;;
3463;SDS011;3551;41.578;24.706;2023-12-20T03:32:23;13.05;;;6.25;;
3463;SDS011;3551;41.578;24.706;2023-12-20T03:34:50;16.40;;;7.05;;
3463;SDS011;3551;41.578;24.706;2023-12-20T03:37:17;14.48;;;7.72;;
3463;SDS011;3551;41.578;24.706;2023-12-20T03:39:44;22.45;;;9.52;;
3463;SDS011;3551;41.578;24.706;2023-12-20T03:42:11;16.10;;;7.80;;
3463;SDS011;3551;41.578;24.706;2023-12-20T03:44:38;16.92;;;8.90;;
3463;SDS011;3551;41.578;24.706;2023-12-20T03:47:05;18.10;;;8.13;;
3463;SDS011;3551;41.578;24.706;2023-12-20T03:49:33;17.88;;;8.85;;
3463;SDS011;3551;41.578;24.706;2023-12-20T03:52:02;16.55;;;7.90;;
3463;SDS011;3551;41.578;24.706;2023-12-20T03:54:29;20.70;;;7.40;;
3463;SDS011;3551;41.578;24.706;2023-12-20T03:56:56;18.83;;;8.52;;
3463;SDS011;3551;41.578;24.706;2023-12-20T03:59:23;23.13;;;9.75;;
3463;SDS011;3551;41.578;24.706;2023-12-20T04:01:50;26.30;;;9.50;;
3463;SDS011;3551;41.578;24.706;2023-12-20T04:04:17;19.20;;;9.00;;
3463;SDS011;3551;41.578;24.706;2023-12-20T04:06:45;16.23;;;8.57;;
3463;SDS011;3551;41.578;24.706;2023-12-20T04:09:12;14.45;;;7.63;;
3463;SDS011;3551;41.578;24.706;2023-12-20T04:11:39;18.02;;;7.78;;
3463;SDS011;3551;41.578;24.706;2023-12-20T04:14:06;16.65;;;7.45;;
3463;SDS011;3551;41.578;24.706;2023-12-20T04:16:33;26.17;;;9.50;;
3463;SDS011;3551;41.578;24.706;2023-12-20T04:19:00;18.85;;;9.63;;
3463;SDS011;3551;41.578;24.706;2023-12-20T04:21:27;23.45;;;11.55;;
3463;SDS011;3551;41.578;24.706;2023-12-20T04:23:56;26.42;;;12.90;;
3463;SDS011;3551;41.578;24.706;2023-12-20T04:26:23;20.30;;;11.15;;
3463;SDS011;3551;41.578;24.706;2023-12-20T04:28:50;18.50;;;9.52;;
3463;SDS011;3551;41.578;24.706;2023-12-20T04:31:17;22.73;;;9.00;;
3463;SDS011;3551;41.578;24.706;2023-12-20T04:33:44;68.18;;;23.88;;
3463;SDS011;3551;41.578;24.706;2023-12-20T04:36:10;126.55;;;41.70;;
3463;SDS011;3551;41.578;24.706;2023-12-20T04:38:37;130.20;;;40.20;;
3463;SDS011;3551;41.578;24.706;2023-12-20T04:41:06;116.22;;;35.33;;
3463;SDS011;3551;41.578;24.706;2023-12-20T04:43:32;114.95;;;38.30;;
3463;SDS011;3551;41.578;24.706;2023-12-20T04:45:59;62.72;;;24.58;;
3463;SDS011;3551;41.578;24.706;2023-12-20T04:48:26;39.08;;;14.85;;
3463;SDS011;3551;41.578;24.706;2023-12-20T04:50:53;61.70;;;20.73;;
3463;SDS011;3551;41.578;24.706;2023-12-20T04:53:20;87.55;;;28.20;;
3463;SDS011;3551;41.578;24.706;2023-12-20T04:55:46;74.10;;;30.65;;
3463;SDS011;3551;41.578;24.706;2023-12-20T04:58:15;77.65;;;28.42;;
3463;SDS011;3551;41.578;24.706;2023-12-20T05:00:42;67.57;;;24.23;;
3463;SDS011;3551;41.578;24.706;2023-12-20T05:03:09;62.38;;;24.25;;
3463;SDS011;3551;41.578;24.706;2023-12-20T05:05:36;67.53;;;26.83;;
3463;SDS011;3551;41.578;24.706;2023-12-20T05:08:03;71.22;;;27.60;;
3463;SDS011;3551;41.578;24.706;2023-12-20T05:10:30;57.65;;;22.58;;
3463;SDS011;3551;41.578;24.706;2023-12-20T05:12:57;58.40;;;22.55;;
3463;SDS011;3551;41.578;24.706;2023-12-20T05:15:25;48.47;;;20.65;;
3463;SDS011;3551;41.578;24.706;2023-12-20T05:17:52;49.60;;;19.45;;
3463;SDS011;3551;41.578;24.706;2023-12-20T05:20:19;39.55;;;17.50;;
3463;SDS011;3551;41.578;24.706;2023-12-20T05:22:46;36.75;;;17.63;;
3463;SDS011;3551;41.578;24.706;2023-12-20T05:25:13;46.80;;;19.52;;
3463;SDS011;3551;41.578;24.706;2023-12-20T05:27:40;27.73;;;14.77;;
3463;SDS011;3551;41.578;24.706;2023-12-20T05:30:07;29.88;;;13.85;;
3463;SDS011;3551;41.578;24.706;2023-12-20T05:32:36;28.88;;;14.25;;
3463;SDS011;3551;41.578;24.706;2023-12-20T05:35:02;33.45;;;17.60;;
3463;SDS011;3551;41.578;24.706;2023-12-20T05:37:30;36.75;;;19.15;;
3463;SDS011;3551;41.578;24.706;2023-12-20T05:39:57;38.22;;;20.65;;
3463;SDS011;3551;41.578;24.706;2023-12-20T05:42:23;38.17;;;19.70;;
3463;SDS011;3551;41.578;24.706;2023-12-20T05:44:50;34.65;;;18.55;;
3463;SDS011;3551;41.578;24.706;2023-12-20T05:47:17;36.25;;;18.77;;
3463;SDS011;3551;41.578;24.706;2023-12-20T05:49:45;43.30;;;19.88;;
3463;SDS011;3551;41.578;24.706;2023-12-20T05:52:12;41.25;;;23.15;;
3463;SDS011;3551;41.578;24.706;2023-12-20T05:54:39;42.42;;;20.80;;
3463;SDS011;3551;41.578;24.706;2023-12-20T05:57:06;48.90;;;25.95;;
3463;SDS011;3551;41.578;24.706;2023-12-20T05:59:33;63.80;;;33.70;;
3463;SDS011;3551;41.578;24.706;2023-12-20T06:02:00;67.35;;;34.65;;
3463;SDS011;3551;41.578;24.706;2023-12-20T06:04:29;64.90;;;34.47;;
3463;SDS011;3551;41.578;24.706;2023-12-20T06:06:58;83.55;;;36.70;;
3463;SDS011;3551;41.578;24.706;2023-12-20T06:09:25;72.10;;;37.70;;
3463;SDS011;3551;41.578;24.706;2023-12-20T06:11:54;77.57;;;39.95;;
3463;SDS011;3551;41.578;24.706;2023-12-20T06:14:21;79.68;;;39.95;;
3463;SDS011;3551;41.578;24.706;2023-12-20T09:44:06;5.35;;;2.40;;
3463;SDS011;3551;41.578;24.706;2023-12-20T09:46:49;7.10;;;3.22;;
3463;SDS011;3551;41.578;24.706;2023-12-20T09:49:16;6.15;;;2.95;;
3463;SDS011;3551;41.578;24.706;2023-12-20T09:51:45;4.75;;;2.63;;
3463;SDS011;3551;41.578;24.706;2023-12-20T09:54:14;3.83;;;1.63;;
3463;SDS011;3551;41.578;24.706;2023-12-20T09:56:43;2.60;;;1.00;;
3463;SDS011;3551;41.578;24.706;2023-12-20T09:59:12;3.73;;;1.60;;
3463;SDS011;3551;41.578;24.706;2023-12-20T10:01:39;2.37;;;0.90;;
3463;SDS011;3551;41.578;24.706;2023-12-20T10:04:10;2.50;;;1.10;;
3463;SDS011;3551;41.578;24.706;2023-12-20T10:06:40;1.63;;;0.70;;
3463;SDS011;3551;41.578;24.706;2023-12-20T10:09:07;3.10;;;0.90;;
3463;SDS011;3551;41.578;24.706;2023-12-20T10:11:38;2.40;;;1.40;;
3463;SDS011;3551;41.578;24.706;2023-12-20T10:14:07;2.07;;;0.90;;
3463;SDS011;3551;41.578;24.706;2023-12-20T10:16:37;2.30;;;1.07;;
3463;SDS011;3551;41.578;24.706;2023-12-20T10:19:07;2.03;;;0.97;;
3463;SDS011;3551;41.578;24.706;2023-12-20T10:21:41;1.60;;;0.60;;
3463;SDS011;3551;41.578;24.706;2023-12-20T10:24:16;8.70;;;0.70;;
3463;SDS011;3551;41.578;24.706;2023-12-20T10:26:45;1.53;;;0.57;;
3463;SDS011;3551;41.578;24.706;2023-12-20T10:29:12;3.20;;;1.40;;
3463;SDS011;3551;41.578;24.706;2023-12-20T10:31:40;1.67;;;0.80;;
3463;SDS011;3551;41.578;24.706;2023-12-20T10:34:10;1.80;;;0.60;;
3463;SDS011;3551;41.578;24.706;2023-12-20T10:36:48;1.93;;;0.80;;
3463;SDS011;3551;41.578;24.706;2023-12-20T10:39:15;1.57;;;0.60;;
3463;SDS011;3551;41.578;24.706;2023-12-20T10:41:46;2.20;;;1.10;;
3463;SDS011;3551;41.578;24.706;2023-12-20T10:44:15;1.60;;;0.80;;
3463;SDS011;3551;41.578;24.706;2023-12-20T10:46:44;1.80;;;0.90;;
3463;SDS011;3551;41.578;24.706;2023-12-20T10:49:19;5.43;;;0.70;;
3463;SDS011;3551;41.578;24.706;2023-12-20T10:51:49;2.10;;;0.90;;
3463;SDS011;3551;41.578;24.706;2023-12-20T10:54:18;1.87;;;0.83;;
3463;SDS011;3551;41.578;24.706;2023-12-20T10:56:45;2.40;;;0.93;;
3463;SDS011;3551;41.578;24.706;2023-12-20T10:59:14;2.80;;;1.23;;
3463;SDS011;3551;41.578;24.706;2023-12-20T11:01:48;12.43;;;2.57;;
3463;SDS011;3551;41.578;24.706;2023-12-20T11:04:18;2.53;;;1.53;;
3463;SDS011;3551;41.578;24.706;2023-12-20T11:06:51;6.23;;;1.80;;
3463;SDS011;3551;41.578;24.706;2023-12-20T11:09:24;11.87;;;2.20;;
3463;SDS011;3551;41.578;24.706;2023-12-20T11:11:59;5.60;;;1.33;;
3463;SDS011;3551;41.578;24.706;2023-12-20T11:14:33;7.20;;;2.10;;
3463;SDS011;3551;41.578;24.706;2023-12-20T11:17:08;20.43;;;4.40;;
3463;SDS011;3551;41.578;24.706;2023-12-20T11:19:38;6.10;;;2.40;;
3463;SDS011;3551;41.578;24.706;2023-12-20T11:22:30;4.23;;;2.10;;
3463;SDS011;3551;41.578;24.706;2023-12-20T11:25:00;3.10;;;1.40;;
3463;SDS011;3551;41.578;24.706;2023-12-20T11:27:30;2.70;;;1.63;;
3463;SDS011;3551;41.578;24.706;2023-12-20T11:29:58;4.03;;;1.10;;
3463;SDS011;3551;41.578;24.706;2023-12-20T11:32:35;1.70;;;0.90;;
3463;SDS011;3551;41.578;24.706;2023-12-20T11:35:16;4.13;;;1.40;;
3463;SDS011;3551;41.578;24.706;2023-12-20T11:37:45;2.17;;;1.10;;
3463;SDS011;3551;41.578;24.706;2023-12-20T11:40:14;2.33;;;1.00;;
3463;SDS011;3551;41.578;24.706;2023-12-20T11:42:42;3.73;;;1.57;;
3463;SDS011;3551;41.578;24.706;2023-12-20T11:45:11;2.40;;;1.00;;
3463;SDS011;3551;41.578;24.706;2023-12-20T11:47:43;2.20;;;1.00;;
3463;SDS011;3551;41.578;24.706;2023-12-20T11:50:12;5.63;;;1.77;;
3463;SDS011;3551;41.578;24.706;2023-12-20T11:52:40;2.30;;;1.03;;
3463;SDS011;3551;41.578;24.706;2023-12-20T11:55:08;2.57;;;1.00;;
3463;SDS011;3551;41.578;24.706;2023-12-20T11:57:37;4.13;;;1.00;;
3463;SDS011;3551;41.578;24.706;2023-12-20T12:00:05;1.70;;;1.00;;
3463;SDS011;3551;41.578;24.706;2023-12-20T12:02:34;4.77;;;0.90;;
3463;SDS011;3551;41.578;24.706;2023-12-20T12:05:02;5.07;;;0.90;;
3463;SDS011;3551;41.578;24.706;2023-12-20T12:07:30;2.23;;;1.30;;
3463;SDS011;3551;41.578;24.706;2023-12-20T12:09:57;2.37;;;0.70;;
3463;SDS011;3551;41.578;24.706;2023-12-20T12:12:24;3.70;;;2.20;;
3463;SDS011;3551;41.578;24.706;2023-12-20T12:14:52;14.90;;;8.03;;
3463;SDS011;3551;41.578;24.706;2023-12-20T12:17:19;15.50;;;2.30;;
3463;SDS011;3551;41.578;24.706;2023-12-20T12:19:46;7.40;;;1.90;;
3463;SDS011;3551;41.578;24.706;2023-12-20T12:22:15;3.20;;;1.07;;
3463;SDS011;3551;41.578;24.706;2023-12-20T12:24:46;2.33;;;1.23;;
3463;SDS011;3551;41.578;24.706;2023-12-20T12:27:15;2.40;;;1.90;;
3463;SDS011;3551;41.578;24.706;2023-12-20T12:32:29;1.80;;;0.90;;
3463;SDS011;3551;41.578;24.706;2023-12-20T12:34:59;2.10;;;0.80;;
3463;SDS011;3551;41.578;24.706;2023-12-20T12:37:35;9.57;;;0.80;;
3463;SDS011;3551;41.578;24.706;2023-12-20T12:40:05;4.33;;;1.40;;
3463;SDS011;3551;41.578;24.706;2023-12-20T12:42:34;3.80;;;1.73;;
3463;SDS011;3551;41.578;24.706;2023-12-20T12:45:00;5.20;;;1.60;;
3463;SDS011;3551;41.578;24.706;2023-12-20T12:47:27;1.60;;;0.70;;
3463;SDS011;3551;41.578;24.706;2023-12-20T12:49:54;2.63;;;1.37;;
3463;SDS011;3551;41.578;24.706;2023-12-20T12:52:22;2.83;;;1.50;;
3463;SDS011;3551;41.578;24.706;2023-12-20T12:54:50;3.80;;;2.47;;
3463;SDS011;3551;41.578;24.706;2023-12-20T12:57:20;2.60;;;1.50;;
3463;SDS011;3551;41.578;24.706;2023-12-20T12:59:50;2.20;;;1.50;;
3463;SDS011;3551;41.578;24.706;2023-12-20T13:02:17;6.00;;;3.30;;
3463;SDS011;3551;41.578;24.706;2023-12-20T13:04:49;3.23;;;2.60;;
3463;SDS011;3551;41.578;24.706;2023-12-20T13:07:17;2.50;;;1.80;;
3463;SDS011;3551;41.578;24.706;2023-12-20T13:09:47;1.80;;;0.80;;
3463;SDS011;3551;41.578;24.706;2023-12-20T13:12:19;3.63;;;2.30;;
3463;SDS011;3551;41.578;24.706;2023-12-20T13:14:49;3.80;;;2.30;;
3463;SDS011;3551;41.578;24.706;2023-12-20T13:17:17;2.70;;;1.80;;
3463;SDS011;3551;41.578;24.706;2023-12-20T13:19:47;2.80;;;1.60;;
3463;SDS011;3551;41.578;24.706;2023-12-20T13:22:17;4.43;;;1.40;;
3463;SDS011;3551;41.578;24.706;2023-12-20T13:24:47;1.90;;;1.00;;
3463;SDS011;3551;41.578;24.706;2023-12-20T13:27:14;2.50;;;1.40;;
3463;SDS011;3551;41.578;24.706;2023-12-20T13:29:42;5.00;;;2.37;;
3463;SDS011;3551;41.578;24.706;2023-12-20T13:32:09;20.73;;;2.80;;
3463;SDS011;3551;41.578;24.706;2023-12-20T13:34:36;51.57;;;8.60;;
3463;SDS011;3551;41.578;24.706;2023-12-20T13:37:03;35.13;;;9.37;;
3463;SDS011;3551;41.578;24.706;2023-12-20T13:39:30;24.03;;;9.53;;
3463;SDS011;3551;41.578;24.706;2023-12-20T13:41:58;27.37;;;6.20;;
3463;SDS011;3551;41.578;24.706;2023-12-20T13:44:26;19.20;;;6.33;;
3463;SDS011;3551;41.578;24.706;2023-12-20T13:46:54;24.40;;;6.67;;
3463;SDS011;3551;41.578;24.706;2023-12-20T13:49:21;29.83;;;9.17;;
3463;SDS011;3551;41.578;24.706;2023-12-20T13:51:50;23.10;;;8.10;;
3463;SDS011;3551;41.578;24.706;2023-12-20T13:54:20;16.67;;;8.20;;
3463;SDS011;3551;41.578;24.706;2023-12-20T13:56:47;16.63;;;6.70;;
3463;SDS011;3551;41.578;24.706;2023-12-20T13:59:14;7.90;;;4.70;;
3463;SDS011;3551;41.578;24.706;2023-12-20T14:01:41;19.33;;;6.90;;
3463;SDS011;3551;41.578;24.706;2023-12-20T14:04:09;16.20;;;7.77;;
3463;SDS011;3551;41.578;24.706;2023-12-20T14:06:37;12.10;;;6.37;;
3463;SDS011;3551;41.578;24.706;2023-12-20T14:09:04;22.27;;;8.47;;
3463;SDS011;3551;41.578;24.706;2023-12-20T14:11:31;20.50;;;8.33;;
3463;SDS011;3551;41.578;24.706;2023-12-20T14:14:03;17.00;;;8.17;;
3463;SDS011;3551;41.578;24.706;2023-12-20T14:16:47;20.50;;;4.50;;
3463;SDS011;3551;41.578;24.706;2023-12-20T14:19:20;14.20;;;8.43;;
3463;SDS011;3551;41.578;24.706;2023-12-20T14:21:50;28.00;;;8.87;;
3463;SDS011;3551;41.578;24.706;2023-12-20T14:24:20;17.93;;;9.47;;
3463;SDS011;3551;41.578;24.706;2023-12-20T14:29:40;25.20;;;12.40;;
3463;SDS011;3551;41.578;24.706;2023-12-20T14:32:10;21.07;;;11.60;;
3463;SDS011;3551;41.578;24.706;2023-12-20T14:34:41;23.83;;;12.03;;
3463;SDS011;3551;41.578;24.706;2023-12-20T14:37:14;25.00;;;11.43;;
3463;SDS011;3551;41.578;24.706;2023-12-20T14:39:48;29.63;;;12.13;;
3463;SDS011;3551;41.578;24.706;2023-12-20T14:51:30;32.38;;;19.55;;
3463;SDS011;3551;41.578;24.706;2023-12-20T14:57:15;38.55;;;20.65;;
3463;SDS011;3551;41.578;24.706;2023-12-20T15:00:30;41.28;;;23.60;;
3463;SDS011;3551;41.578;24.706;2023-12-20T16:31:33;63.87;;;34.60;;
3463;SDS011;3551;41.578;24.706;2023-12-20T16:34:00;58.53;;;32.38;;
3463;SDS011;3551;41.578;24.706;2023-12-20T16:36:27;65.05;;;31.60;;
3463;SDS011;3551;41.578;24.706;2023-12-20T16:39:15;60.35;;;33.22;;
3463;SDS011;3551;41.578;24.706;2023-12-20T16:41:42;62.92;;;33.10;;
3463;SDS011;3551;41.578;24.706;2023-12-20T16:44:08;53.15;;;31.08;;
3463;SDS011;3551;41.578;24.706;2023-12-20T16:46:37;63.08;;;35.50;;
3463;SDS011;3551;41.578;24.706;2023-12-20T16:49:04;55.78;;;29.73;;
3463;SDS011;3551;41.578;24.706;2023-12-20T16:51:31;56.75;;;31.27;;
3463;SDS011;3551;41.578;24.706;2023-12-20T16:53:59;66.65;;;33.60;;
3463;SDS011;3551;41.578;24.706;2023-12-20T16:56:26;52.10;;;30.55;;
3463;SDS011;3551;41.578;24.706;2023-12-20T16:58:52;61.05;;;35.97;;
3463;SDS011;3551;41.578;24.706;2023-12-20T17:01:19;64.07;;;32.42;;
3463;SDS011;3551;41.578;24.706;2023-12-20T17:03:49;71.60;;;32.70;;
3463;SDS011;3551;41.578;24.706;2023-12-20T17:06:16;64.35;;;34.30;;
3463;SDS011;3551;41.578;24.706;2023-12-20T17:08:43;71.63;;;37.25;;
3463;SDS011;3551;41.578;24.706;2023-12-20T17:11:10;56.53;;;29.52;;
3463;SDS011;3551;41.578;24.706;2023-12-20T17:13:37;44.22;;;23.85;;
3463;SDS011;3551;41.578;24.706;2023-12-20T17:16:04;54.03;;;28.75;;
3463;SDS011;3551;41.578;24.706;2023-12-20T17:18:31;48.60;;;25.52;;
3463;SDS011;3551;41.578;24.706;2023-12-20T17:20:59;83.65;;;39.88;;
3463;SDS011;3551;41.578;24.706;2023-12-20T17:23:27;51.97;;;26.83;;
3463;SDS011;3551;41.578;24.706;2023-12-20T17:25:55;54.17;;;31.20;;
3463;SDS011;3551;41.578;24.706;2023-12-20T17:28:22;49.42;;;28.83;;
3463;SDS011;3551;41.578;24.706;2023-12-20T17:30:48;53.97;;;28.80;;
3463;SDS011;3551;41.578;24.706;2023-12-20T17:33:15;54.83;;;28.30;;
3463;SDS011;3551;41.578;24.706;2023-12-20T17:35:42;55.85;;;29.55;;
3463;SDS011;3551;41.578;24.706;2023-12-20T17:38:11;56.97;;;31.17;;
3463;SDS011;3551;41.578;24.706;2023-12-20T17:40:38;65.15;;;33.67;;
3463;SDS011;3551;41.578;24.706;2023-12-20T17:43:06;64.63;;;33.72;;
3463;SDS011;3551;41.578;24.706;2023-12-20T17:45:35;59.08;;;33.45;;
3463;SDS011;3551;41.578;24.706;2023-12-20T17:48:02;59.60;;;32.20;;
3463;SDS011;3551;41.578;24.706;2023-12-20T17:50:29;64.18;;;35.97;;
3463;SDS011;3551;41.578;24.706;2023-12-20T17:52:56;63.65;;;35.88;;
3463;SDS011;3551;41.578;24.706;2023-12-20T17:55:25;72.53;;;36.72;;
3463;SDS011;3551;41.578;24.706;2023-12-20T17:57:52;79.63;;;39.17;;
3463;SDS011;3551;41.578;24.706;2023-12-20T18:00:20;77.40;;;39.92;;
3463;SDS011;3551;41.578;24.706;2023-12-20T18:02:50;72.97;;;36.83;;
3463;SDS011;3551;41.578;24.706;2023-12-20T18:05:20;64.20;;;36.08;;
3463;SDS011;3551;41.578;24.706;2023-12-20T18:07:49;86.13;;;35.20;;
3463;SDS011;3551;41.578;24.706;2023-12-20T18:10:15;71.68;;;33.70;;
3463;SDS011;3551;41.578;24.706;2023-12-20T18:12:44;54.17;;;25.50;;
3463;SDS011;3551;41.578;24.706;2023-12-20T18:15:11;49.78;;;25.70;;
3463;SDS011;3551;41.578;24.706;2023-12-20T18:17:38;45.58;;;23.30;;
3463;SDS011;3551;41.578;24.706;2023-12-20T18:20:05;41.20;;;23.38;;
3463;SDS011;3551;41.578;24.706;2023-12-20T18:22:32;42.03;;;23.75;;
3463;SDS011;3551;41.578;24.706;2023-12-20T18:24:59;41.38;;;22.88;;
3463;SDS011;3551;41.578;24.706;2023-12-20T18:27:26;42.28;;;22.50;;
3463;SDS011;3551;41.578;24.706;2023-12-20T18:29:54;42.47;;;23.55;;
3463;SDS011;3551;41.578;24.706;2023-12-20T18:32:21;48.88;;;23.63;;
3463;SDS011;3551;41.578;24.706;2023-12-20T18:34:50;43.45;;;23.35;;
3463;SDS011;3551;41.578;24.706;2023-12-20T18:37:17;50.75;;;27.23;;
3463;SDS011;3551;41.578;24.706;2023-12-20T18:39:43;69.45;;;36.25;;
3463;SDS011;3551;41.578;24.706;2023-12-20T18:42:11;59.30;;;33.05;;
3463;SDS011;3551;41.578;24.706;2023-12-20T18:44:38;67.13;;;36.28;;
3463;SDS011;3551;41.578;24.706;2023-12-20T18:47:06;75.22;;;37.25;;
3463;SDS011;3551;41.578;24.706;2023-12-20T18:49:33;72.03;;;37.63;;
3463;SDS011;3551;41.578;24.706;2023-12-20T18:52:00;82.00;;;44.92;;
3463;SDS011;3551;41.578;24.706;2023-12-20T18:54:30;67.47;;;35.08;;
3463;SDS011;3551;41.578;24.706;2023-12-20T18:56:56;72.82;;;35.47;;
3463;SDS011;3551;41.578;24.706;2023-12-20T18:59:23;60.40;;;29.77;;
3463;SDS011;3551;41.578;24.706;2023-12-20T19:01:51;99.50;;;49.97;;
3463;SDS011;3551;41.578;24.706;2023-12-20T19:04:19;75.47;;;41.20;;
3463;SDS011;3551;41.578;24.706;2023-12-20T19:06:46;96.03;;;42.38;;
3463;SDS011;3551;41.578;24.706;2023-12-20T19:09:14;101.05;;;50.88;;
3463;SDS011;3551;41.578;24.706;2023-12-20T19:11:41;100.85;;;54.67;;
3463;SDS011;3551;41.578;24.706;2023-12-20T19:14:08;85.97;;;47.88;;
3463;SDS011;3551;41.578;24.706;2023-12-20T19:16:38;78.25;;;44.78;;
3463;SDS011;3551;41.578;24.706;2023-12-20T19:19:05;84.70;;;44.92;;
3463;SDS011;3551;41.578;24.706;2023-12-20T19:21:34;84.47;;;45.75;;
3463;SDS011;3551;41.578;24.706;2023-12-20T19:24:01;86.88;;;46.83;;
3463;SDS011;3551;41.578;24.706;2023-12-20T19:26:28;89.43;;;49.97;;
3463;SDS011;3551;41.578;24.706;2023-12-20T19:28:54;105.05;;;52.53;;
3463;SDS011;3551;41.578;24.706;2023-12-20T19:31:21;93.68;;;50.78;;
3463;SDS011;3551;41.578;24.706;2023-12-20T19:33:48;72.45;;;39.67;;
3463;SDS011;3551;41.578;24.706;2023-12-20T19:36:18;88.50;;;45.53;;
3463;SDS011;3551;41.578;24.706;2023-12-20T19:38:46;118.70;;;53.38;;
3463;SDS011;3551;41.578;24.706;2023-12-20T19:41:13;146.70;;;67.80;;
3463;SDS011;3551;41.578;24.706;2023-12-20T19:43:41;152.02;;;70.10;;
3463;SDS011;3551;41.578;24.706;2023-12-20T19:46:08;130.73;;;61.60;;
3463;SDS011;3551;41.578;24.706;2023-12-20T19:48:36;121.35;;;61.50;;
3463;SDS011;3551;41.578;24.706;2023-12-20T19:51:03;103.70;;;52.50;;
3463;SDS011;3551;41.578;24.706;2023-12-20T19:53:30;87.88;;;44.60;;
3463;SDS011;3551;41.578;24.706;2023-12-20T19:55:58;78.60;;;40.72;;
3463;SDS011;3551;41.578;24.706;2023-12-20T19:58:26;81.35;;;43.42;;
3463;SDS011;3551;41.578;24.706;2023-12-20T20:00:53;93.60;;;45.17;;
3463;SDS011;3551;41.578;24.706;2023-12-20T20:03:20;82.68;;;41.60;;